sensor_id;sensor_type;location;lat;lon;timestamp;P1;durP1;ratioP1;P2;durP2;ratioP2
74541;SDS011;63015;45.378;20.360;2023-08-24T00:01:40;15.98;;;9.98;;
74541;SDS011;63015;45.378;20.360;2023-08-24T00:03:41;16.65;;;10.40;;
74541;SDS011;63015;45.378;20.360;2023-08-24T00:05:42;16.05;;;10.18;;
74541;SDS011;63015;45.378;20.360;2023-08-24T00:07:43;13.07;;;10.60;;
74541;SDS011;63015;45.378;20.360;2023-08-24T00:09:44;14.52;;;9.48;;
74541;SDS011;63015;45.378;20.360;2023-08-24T00:11:44;14.98;;;9.63;;
74541;SDS011;63015;45.378;20.360;2023-08-24T00:13:45;15.00;;;10.23;;
74541;SDS011;63015;45.378;20.360;2023-08-24T00:15:53;14.40;;;8.85;;
74541;SDS011;63015;45.378;20.360;2023-08-24T00:17:54;16.13;;;9.77;;
74541;SDS011;63015;45.378;20.360;2023-08-24T00:19:54;14.38;;;9.57;;
74541;SDS011;63015;45.378;20.360;2023-08-24T00:21:55;16.10;;;9.07;;
74541;SDS011;63015;45.378;20.360;2023-08-24T00:23:56;14.43;;;9.40;;
74541;SDS011;63015;45.378;20.360;2023-08-24T00:25:56;12.98;;;9.05;;
74541;SDS011;63015;45.378;20.360;2023-08-24T00:27:57;15.73;;;9.27;;
74541;SDS011;63015;45.378;20.360;2023-08-24T00:29:58;14.15;;;9.30;;
74541;SDS011;63015;45.378;20.360;2023-08-24T00:31:59;14.10;;;9.10;;
74541;SDS011;63015;45.378;20.360;2023-08-24T00:34:00;14.32;;;9.30;;
74541;SDS011;63015;45.378;20.360;2023-08-24T00:36:01;14.38;;;9.10;;
74541;SDS011;63015;45.378;20.360;2023-08-24T00:38:02;15.57;;;9.25;;
74541;SDS011;63015;45.378;20.360;2023-08-24T00:40:03;13.48;;;9.10;;
74541;SDS011;63015;45.378;20.360;2023-08-24T00:42:08;12.32;;;8.82;;
74541;SDS011;63015;45.378;20.360;2023-08-24T00:44:14;16.30;;;9.10;;
74541;SDS011;63015;45.378;20.360;2023-08-24T00:46:15;12.93;;;10.05;;
74541;SDS011;63015;45.378;20.360;2023-08-24T00:48:17;14.20;;;9.10;;
74541;SDS011;63015;45.378;20.360;2023-08-24T00:50:18;14.43;;;9.18;;
74541;SDS011;63015;45.378;20.360;2023-08-24T00:52:20;14.60;;;8.40;;
74541;SDS011;63015;45.378;20.360;2023-08-24T00:54:21;15.38;;;8.93;;
74541;SDS011;63015;45.378;20.360;2023-08-24T00:56:21;12.85;;;8.88;;
74541;SDS011;63015;45.378;20.360;2023-08-24T00:58:24;15.27;;;8.95;;
74541;SDS011;63015;45.378;20.360;2023-08-24T01:00:27;15.73;;;8.98;;
74541;SDS011;63015;45.378;20.360;2023-08-24T01:02:27;16.98;;;9.77;;
74541;SDS011;63015;45.378;20.360;2023-08-24T01:04:28;13.25;;;9.07;;
74541;SDS011;63015;45.378;20.360;2023-08-24T01:06:29;13.40;;;9.10;;
74541;SDS011;63015;45.378;20.360;2023-08-24T01:08:29;14.25;;;8.93;;
74541;SDS011;63015;45.378;20.360;2023-08-24T01:10:33;14.10;;;9.13;;
74541;SDS011;63015;45.378;20.360;2023-08-24T01:13:29;16.58;;;10.15;;
74541;SDS011;63015;45.378;20.360;2023-08-24T01:15:15;12.95;;;8.73;;
74541;SDS011;63015;45.378;20.360;2023-08-24T01:17:22;15.93;;;9.43;;
74541;SDS011;63015;45.378;20.360;2023-08-24T01:19:34;13.75;;;9.63;;
74541;SDS011;63015;45.378;20.360;2023-08-24T01:21:44;17.48;;;8.98;;
74541;SDS011;63015;45.378;20.360;2023-08-24T01:26:11;15.52;;;9.43;;
74541;SDS011;63015;45.378;20.360;2023-08-24T01:28:12;16.00;;;10.35;;
74541;SDS011;63015;45.378;20.360;2023-08-24T01:30:15;18.80;;;9.88;;
74541;SDS011;63015;45.378;20.360;2023-08-24T01:32:17;14.07;;;9.50;;
74541;SDS011;63015;45.378;20.360;2023-08-24T01:34:18;13.88;;;10.05;;
74541;SDS011;63015;45.378;20.360;2023-08-24T01:36:18;14.48;;;10.27;;
74541;SDS011;63015;45.378;20.360;2023-08-24T01:38:19;13.70;;;10.13;;
74541;SDS011;63015;45.378;20.360;2023-08-24T01:40:23;13.50;;;9.57;;
74541;SDS011;63015;45.378;20.360;2023-08-24T01:42:30;17.40;;;9.73;;
74541;SDS011;63015;45.378;20.360;2023-08-24T01:44:34;18.13;;;11.80;;
74541;SDS011;63015;45.378;20.360;2023-08-24T01:46:36;14.98;;;9.68;;
74541;SDS011;63015;45.378;20.360;2023-08-24T01:48:39;17.60;;;10.77;;
74541;SDS011;63015;45.378;20.360;2023-08-24T01:50:41;14.82;;;11.15;;
74541;SDS011;63015;45.378;20.360;2023-08-24T01:52:42;16.80;;;10.40;;
74541;SDS011;63015;45.378;20.360;2023-08-24T01:54:42;16.73;;;10.40;;
74541;SDS011;63015;45.378;20.360;2023-08-24T01:56:43;17.52;;;10.45;;
74541;SDS011;63015;45.378;20.360;2023-08-24T01:58:44;19.88;;;10.05;;
74541;SDS011;63015;45.378;20.360;2023-08-24T02:00:45;17.23;;;10.48;;
74541;SDS011;63015;45.378;20.360;2023-08-24T02:02:45;17.67;;;10.05;;
74541;SDS011;63015;45.378;20.360;2023-08-24T02:04:46;14.25;;;9.88;;
74541;SDS011;63015;45.378;20.360;2023-08-24T02:06:47;16.58;;;10.77;;
74541;SDS011;63015;45.378;20.360;2023-08-24T02:08:48;16.52;;;10.98;;
74541;SDS011;63015;45.378;20.360;2023-08-24T02:10:48;17.23;;;11.07;;
74541;SDS011;63015;45.378;20.360;2023-08-24T02:12:49;17.20;;;11.02;;
74541;SDS011;63015;45.378;20.360;2023-08-24T02:14:50;16.80;;;10.65;;
74541;SDS011;63015;45.378;20.360;2023-08-24T02:16:50;14.45;;;10.63;;
74541;SDS011;63015;45.378;20.360;2023-08-24T02:18:51;14.90;;;11.13;;
74541;SDS011;63015;45.378;20.360;2023-08-24T02:20:52;16.77;;;11.02;;
74541;SDS011;63015;45.378;20.360;2023-08-24T02:22:52;16.30;;;11.23;;
74541;SDS011;63015;45.378;20.360;2023-08-24T02:24:53;16.95;;;11.25;;
74541;SDS011;63015;45.378;20.360;2023-08-24T02:26:54;14.50;;;10.35;;
74541;SDS011;63015;45.378;20.360;2023-08-24T02:28:54;16.05;;;11.18;;
74541;SDS011;63015;45.378;20.360;2023-08-24T02:31:01;14.80;;;11.32;;
74541;SDS011;63015;45.378;20.360;2023-08-24T02:33:03;15.32;;;10.82;;
74541;SDS011;63015;45.378;20.360;2023-08-24T02:35:04;16.42;;;10.65;;
74541;SDS011;63015;45.378;20.360;2023-08-24T02:37:05;16.17;;;10.35;;
74541;SDS011;63015;45.378;20.360;2023-08-24T02:39:05;14.80;;;10.52;;
74541;SDS011;63015;45.378;20.360;2023-08-24T02:41:07;16.48;;;10.50;;
74541;SDS011;63015;45.378;20.360;2023-08-24T02:43:09;16.75;;;10.52;;
74541;SDS011;63015;45.378;20.360;2023-08-24T02:45:09;15.25;;;10.88;;
74541;SDS011;63015;45.378;20.360;2023-08-24T02:47:12;17.45;;;11.20;;
74541;SDS011;63015;45.378;20.360;2023-08-24T02:49:13;18.00;;;10.52;;
74541;SDS011;63015;45.378;20.360;2023-08-24T02:51:13;22.10;;;12.00;;
74541;SDS011;63015;45.378;20.360;2023-08-24T02:53:14;16.70;;;10.98;;
74541;SDS011;63015;45.378;20.360;2023-08-24T02:55:15;15.23;;;11.23;;
74541;SDS011;63015;45.378;20.360;2023-08-24T02:57:15;15.45;;;11.07;;
74541;SDS011;63015;45.378;20.360;2023-08-24T02:59:16;14.88;;;10.82;;
74541;SDS011;63015;45.378;20.360;2023-08-24T03:01:17;16.50;;;10.93;;
74541;SDS011;63015;45.378;20.360;2023-08-24T03:03:18;16.58;;;11.10;;
74541;SDS011;63015;45.378;20.360;2023-08-24T03:05:19;16.08;;;11.48;;
74541;SDS011;63015;45.378;20.360;2023-08-24T03:07:20;14.52;;;11.02;;
74541;SDS011;63015;45.378;20.360;2023-08-24T03:09:21;15.40;;;11.98;;
74541;SDS011;63015;45.378;20.360;2023-08-24T03:11:21;17.88;;;10.63;;
74541;SDS011;63015;45.378;20.360;2023-08-24T03:13:22;17.52;;;11.05;;
74541;SDS011;63015;45.378;20.360;2023-08-24T03:15:24;20.30;;;11.80;;
74541;SDS011;63015;45.378;20.360;2023-08-24T03:17:25;19.90;;;10.98;;
74541;SDS011;63015;45.378;20.360;2023-08-24T03:19:26;15.48;;;11.27;;
74541;SDS011;63015;45.378;20.360;2023-08-24T03:21:27;17.17;;;11.30;;
74541;SDS011;63015;45.378;20.360;2023-08-24T03:23:27;20.20;;;11.80;;
74541;SDS011;63015;45.378;20.360;2023-08-24T03:25:28;18.45;;;13.15;;
74541;SDS011;63015;45.378;20.360;2023-08-24T03:27:29;17.15;;;12.30;;
74541;SDS011;63015;45.378;20.360;2023-08-24T03:29:29;19.83;;;13.43;;
74541;SDS011;63015;45.378;20.360;2023-08-24T03:31:31;18.50;;;10.77;;
74541;SDS011;63015;45.378;20.360;2023-08-24T03:33:32;16.65;;;11.95;;
74541;SDS011;63015;45.378;20.360;2023-08-24T03:35:35;14.90;;;10.52;;
74541;SDS011;63015;45.378;20.360;2023-08-24T03:37:36;18.17;;;12.63;;
74541;SDS011;63015;45.378;20.360;2023-08-24T03:39:37;23.38;;;12.45;;
74541;SDS011;63015;45.378;20.360;2023-08-24T03:41:39;15.68;;;11.07;;
74541;SDS011;63015;45.378;20.360;2023-08-24T03:43:40;17.38;;;11.52;;
74541;SDS011;63015;45.378;20.360;2023-08-24T03:45:41;18.00;;;11.60;;
74541;SDS011;63015;45.378;20.360;2023-08-24T03:47:44;16.27;;;11.55;;
74541;SDS011;63015;45.378;20.360;2023-08-24T03:49:45;19.10;;;12.50;;
74541;SDS011;63015;45.378;20.360;2023-08-24T03:51:46;17.17;;;11.88;;
74541;SDS011;63015;45.378;20.360;2023-08-24T03:53:46;17.67;;;12.63;;
74541;SDS011;63015;45.378;20.360;2023-08-24T03:55:48;20.83;;;11.93;;
74541;SDS011;63015;45.378;20.360;2023-08-24T03:57:49;19.40;;;11.65;;
74541;SDS011;63015;45.378;20.360;2023-08-24T03:59:50;19.25;;;11.52;;
74541;SDS011;63015;45.378;20.360;2023-08-24T04:01:51;16.38;;;11.35;;
74541;SDS011;63015;45.378;20.360;2023-08-24T04:03:52;17.30;;;11.30;;
74541;SDS011;63015;45.378;20.360;2023-08-24T04:05:52;17.33;;;11.82;;
74541;SDS011;63015;45.378;20.360;2023-08-24T04:07:53;18.15;;;12.07;;
74541;SDS011;63015;45.378;20.360;2023-08-24T04:09:54;19.90;;;11.90;;
74541;SDS011;63015;45.378;20.360;2023-08-24T04:11:56;15.52;;;11.55;;
74541;SDS011;63015;45.378;20.360;2023-08-24T04:13:56;19.20;;;11.30;;
74541;SDS011;63015;45.378;20.360;2023-08-24T04:15:57;17.83;;;11.32;;
74541;SDS011;63015;45.378;20.360;2023-08-24T04:17:58;14.50;;;10.93;;
74541;SDS011;63015;45.378;20.360;2023-08-24T04:19:59;16.42;;;12.18;;
74541;SDS011;63015;45.378;20.360;2023-08-24T04:21:59;18.67;;;12.45;;
74541;SDS011;63015;45.378;20.360;2023-08-24T04:24:00;20.45;;;12.02;;
74541;SDS011;63015;45.378;20.360;2023-08-24T04:26:01;20.25;;;11.38;;
74541;SDS011;63015;45.378;20.360;2023-08-24T04:28:01;17.40;;;12.18;;
74541;SDS011;63015;45.378;20.360;2023-08-24T04:30:02;17.13;;;13.43;;
74541;SDS011;63015;45.378;20.360;2023-08-24T04:32:03;16.17;;;12.02;;
74541;SDS011;63015;45.378;20.360;2023-08-24T04:34:04;18.35;;;11.65;;
74541;SDS011;63015;45.378;20.360;2023-08-24T04:36:05;19.73;;;11.85;;
74541;SDS011;63015;45.378;20.360;2023-08-24T04:38:06;13.98;;;10.98;;
74541;SDS011;63015;45.378;20.360;2023-08-24T04:40:06;17.25;;;11.68;;
74541;SDS011;63015;45.378;20.360;2023-08-24T04:42:07;16.40;;;12.35;;
74541;SDS011;63015;45.378;20.360;2023-08-24T04:44:08;21.52;;;12.43;;
74541;SDS011;63015;45.378;20.360;2023-08-24T04:46:08;16.88;;;11.82;;
74541;SDS011;63015;45.378;20.360;2023-08-24T04:48:09;17.83;;;12.30;;
74541;SDS011;63015;45.378;20.360;2023-08-24T04:50:10;15.30;;;11.38;;
74541;SDS011;63015;45.378;20.360;2023-08-24T04:52:10;20.08;;;11.77;;
74541;SDS011;63015;45.378;20.360;2023-08-24T04:54:11;17.95;;;11.27;;
74541;SDS011;63015;45.378;20.360;2023-08-24T04:56:12;17.45;;;11.77;;
74541;SDS011;63015;45.378;20.360;2023-08-24T04:58:12;18.05;;;12.00;;
74541;SDS011;63015;45.378;20.360;2023-08-24T05:00:14;18.63;;;13.77;;
74541;SDS011;63015;45.378;20.360;2023-08-24T05:04:16;17.83;;;13.15;;
74541;SDS011;63015;45.378;20.360;2023-08-24T05:06:18;18.50;;;12.13;;
74541;SDS011;63015;45.378;20.360;2023-08-24T05:08:19;17.38;;;11.90;;
74541;SDS011;63015;45.378;20.360;2023-08-24T05:10:19;14.32;;;10.77;;
74541;SDS011;63015;45.378;20.360;2023-08-24T05:12:20;19.08;;;10.98;;
74541;SDS011;63015;45.378;20.360;2023-08-24T05:14:20;22.85;;;12.02;;
74541;SDS011;63015;45.378;20.360;2023-08-24T05:16:21;19.95;;;11.60;;
74541;SDS011;63015;45.378;20.360;2023-08-24T05:18:22;15.98;;;11.32;;
74541;SDS011;63015;45.378;20.360;2023-08-24T05:20:23;17.92;;;10.88;;
74541;SDS011;63015;45.378;20.360;2023-08-24T05:22:23;18.63;;;11.48;;
74541;SDS011;63015;45.378;20.360;2023-08-24T05:24:24;17.23;;;11.40;;
74541;SDS011;63015;45.378;20.360;2023-08-24T05:26:24;16.15;;;10.93;;
74541;SDS011;63015;45.378;20.360;2023-08-24T05:28:25;18.17;;;10.90;;
74541;SDS011;63015;45.378;20.360;2023-08-24T05:30:29;17.10;;;11.00;;
74541;SDS011;63015;45.378;20.360;2023-08-24T05:32:30;15.90;;;12.00;;
74541;SDS011;63015;45.378;20.360;2023-08-24T05:34:31;15.38;;;9.98;;
74541;SDS011;63015;45.378;20.360;2023-08-24T05:36:32;16.25;;;9.73;;
74541;SDS011;63015;45.378;20.360;2023-08-24T05:38:32;18.45;;;9.90;;
74541;SDS011;63015;45.378;20.360;2023-08-24T05:40:33;17.48;;;9.68;;
74541;SDS011;63015;45.378;20.360;2023-08-24T05:42:34;17.33;;;9.70;;
74541;SDS011;63015;45.378;20.360;2023-08-24T05:44:36;19.10;;;9.20;;
74541;SDS011;63015;45.378;20.360;2023-08-24T05:46:37;16.83;;;10.10;;
74541;SDS011;63015;45.378;20.360;2023-08-24T05:48:38;14.57;;;9.73;;
74541;SDS011;63015;45.378;20.360;2023-08-24T05:50:47;14.13;;;10.43;;
74541;SDS011;63015;45.378;20.360;2023-08-24T05:52:49;17.35;;;9.70;;
74541;SDS011;63015;45.378;20.360;2023-08-24T05:54:49;14.40;;;10.65;;
74541;SDS011;63015;45.378;20.360;2023-08-24T05:56:50;13.20;;;9.43;;
74541;SDS011;63015;45.378;20.360;2023-08-24T05:58:50;12.57;;;9.57;;
74541;SDS011;63015;45.378;20.360;2023-08-24T06:00:55;13.73;;;8.57;;
74541;SDS011;63015;45.378;20.360;2023-08-24T06:02:59;10.68;;;8.05;;
74541;SDS011;63015;45.378;20.360;2023-08-24T06:04:59;12.88;;;8.65;;
74541;SDS011;63015;45.378;20.360;2023-08-24T06:07:00;14.15;;;8.48;;
74541;SDS011;63015;45.378;20.360;2023-08-24T06:09:01;13.60;;;8.10;;
74541;SDS011;63015;45.378;20.360;2023-08-24T06:11:04;13.02;;;8.57;;
74541;SDS011;63015;45.378;20.360;2023-08-24T06:13:05;17.95;;;8.25;;
74541;SDS011;63015;45.378;20.360;2023-08-24T06:15:06;13.07;;;7.50;;
74541;SDS011;63015;45.378;20.360;2023-08-24T06:17:09;11.00;;;7.38;;
74541;SDS011;63015;45.378;20.360;2023-08-24T06:19:10;10.90;;;7.50;;
74541;SDS011;63015;45.378;20.360;2023-08-24T06:21:11;11.82;;;7.40;;
74541;SDS011;63015;45.378;20.360;2023-08-24T06:23:12;11.07;;;7.28;;
74541;SDS011;63015;45.378;20.360;2023-08-24T06:25:13;14.30;;;7.35;;
74541;SDS011;63015;45.378;20.360;2023-08-24T06:27:14;10.73;;;6.93;;
74541;SDS011;63015;45.378;20.360;2023-08-24T06:29:15;11.77;;;6.55;;
74541;SDS011;63015;45.378;20.360;2023-08-24T06:31:15;10.43;;;7.50;;
74541;SDS011;63015;45.378;20.360;2023-08-24T06:33:16;9.27;;;6.65;;
74541;SDS011;63015;45.378;20.360;2023-08-24T06:35:17;10.98;;;7.13;;
74541;SDS011;63015;45.378;20.360;2023-08-24T06:37:18;12.95;;;6.28;;
74541;SDS011;63015;45.378;20.360;2023-08-24T06:39:19;12.48;;;7.00;;
74541;SDS011;63015;45.378;20.360;2023-08-24T06:41:20;10.85;;;6.57;;
74541;SDS011;63015;45.378;20.360;2023-08-24T06:43:20;12.32;;;7.72;;
74541;SDS011;63015;45.378;20.360;2023-08-24T06:45:21;14.90;;;6.65;;
74541;SDS011;63015;45.378;20.360;2023-08-24T06:47:22;10.07;;;6.25;;
74541;SDS011;63015;45.378;20.360;2023-08-24T06:49:22;8.40;;;6.13;;
74541;SDS011;63015;45.378;20.360;2023-08-24T06:51:24;14.60;;;7.95;;
74541;SDS011;63015;45.378;20.360;2023-08-24T06:53:31;11.07;;;8.05;;
74541;SDS011;63015;45.378;20.360;2023-08-24T06:55:31;10.40;;;6.07;;
74541;SDS011;63015;45.378;20.360;2023-08-24T06:57:32;12.65;;;6.63;;
74541;SDS011;63015;45.378;20.360;2023-08-24T06:59:32;9.15;;;6.63;;
74541;SDS011;63015;45.378;20.360;2023-08-24T07:01:33;11.05;;;6.35;;
74541;SDS011;63015;45.378;20.360;2023-08-24T07:03:34;10.20;;;6.55;;
74541;SDS011;63015;45.378;20.360;2023-08-24T07:05:35;9.52;;;6.22;;
74541;SDS011;63015;45.378;20.360;2023-08-24T07:07:35;9.90;;;6.10;;
74541;SDS011;63015;45.378;20.360;2023-08-24T07:09:36;9.85;;;7.68;;
74541;SDS011;63015;45.378;20.360;2023-08-24T07:11:39;13.32;;;6.25;;
74541;SDS011;63015;45.378;20.360;2023-08-24T07:13:40;12.07;;;6.47;;
74541;SDS011;63015;45.378;20.360;2023-08-24T07:15:41;12.98;;;6.80;;
74541;SDS011;63015;45.378;20.360;2023-08-24T07:17:42;10.40;;;6.63;;
74541;SDS011;63015;45.378;20.360;2023-08-24T07:19:43;9.68;;;6.28;;
74541;SDS011;63015;45.378;20.360;2023-08-24T07:21:43;11.75;;;6.68;;
74541;SDS011;63015;45.378;20.360;2023-08-24T07:23:44;9.75;;;6.65;;
74541;SDS011;63015;45.378;20.360;2023-08-24T07:25:45;10.70;;;6.90;;
74541;SDS011;63015;45.378;20.360;2023-08-24T07:27:45;10.40;;;6.38;;
74541;SDS011;63015;45.378;20.360;2023-08-24T07:29:46;11.70;;;6.80;;
74541;SDS011;63015;45.378;20.360;2023-08-24T07:31:47;11.35;;;6.13;;
74541;SDS011;63015;45.378;20.360;2023-08-24T07:33:48;10.55;;;7.70;;
74541;SDS011;63015;45.378;20.360;2023-08-24T07:35:48;10.95;;;6.30;;
74541;SDS011;63015;45.378;20.360;2023-08-24T07:37:49;11.43;;;8.02;;
74541;SDS011;63015;45.378;20.360;2023-08-24T07:39:51;8.85;;;7.53;;
74541;SDS011;63015;45.378;20.360;2023-08-24T07:41:52;9.52;;;6.40;;
74541;SDS011;63015;45.378;20.360;2023-08-24T07:43:52;8.95;;;6.10;;
74541;SDS011;63015;45.378;20.360;2023-08-24T07:45:53;11.60;;;6.80;;
74541;SDS011;63015;45.378;20.360;2023-08-24T07:47:54;8.55;;;7.65;;
74541;SDS011;63015;45.378;20.360;2023-08-24T07:49:55;9.48;;;6.47;;
74541;SDS011;63015;45.378;20.360;2023-08-24T07:51:56;10.00;;;6.63;;
74541;SDS011;63015;45.378;20.360;2023-08-24T07:55:59;11.82;;;8.15;;
74541;SDS011;63015;45.378;20.360;2023-08-24T07:58:01;8.73;;;6.32;;
74541;SDS011;63015;45.378;20.360;2023-08-24T08:02:12;11.45;;;6.90;;
74541;SDS011;63015;45.378;20.360;2023-08-24T08:04:15;11.40;;;5.75;;
74541;SDS011;63015;45.378;20.360;2023-08-24T08:06:16;11.13;;;7.18;;
74541;SDS011;63015;45.378;20.360;2023-08-24T08:08:17;12.95;;;7.97;;
74541;SDS011;63015;45.378;20.360;2023-08-24T08:10:18;11.40;;;5.85;;
74541;SDS011;63015;45.378;20.360;2023-08-24T08:12:20;9.75;;;6.03;;
74541;SDS011;63015;45.378;20.360;2023-08-24T08:14:21;8.05;;;5.97;;
74541;SDS011;63015;45.378;20.360;2023-08-24T08:16:21;11.00;;;5.93;;
74541;SDS011;63015;45.378;20.360;2023-08-24T08:18:22;10.10;;;6.82;;
74541;SDS011;63015;45.378;20.360;2023-08-24T08:20:23;7.60;;;6.22;;
74541;SDS011;63015;45.378;20.360;2023-08-24T08:22:24;7.68;;;5.75;;
74541;SDS011;63015;45.378;20.360;2023-08-24T08:24:25;13.27;;;8.48;;
74541;SDS011;63015;45.378;20.360;2023-08-24T08:26:26;7.95;;;7.15;;
74541;SDS011;63015;45.378;20.360;2023-08-24T08:28:27;9.07;;;6.40;;
74541;SDS011;63015;45.378;20.360;2023-08-24T08:30:27;10.27;;;7.40;;
74541;SDS011;63015;45.378;20.360;2023-08-24T08:32:28;12.20;;;5.85;;
74541;SDS011;63015;45.378;20.360;2023-08-24T08:34:30;10.15;;;5.80;;
74541;SDS011;63015;45.378;20.360;2023-08-24T08:36:30;9.02;;;6.25;;
74541;SDS011;63015;45.378;20.360;2023-08-24T08:38:34;9.68;;;7.47;;
74541;SDS011;63015;45.378;20.360;2023-08-24T08:40:36;8.02;;;6.22;;
74541;SDS011;63015;45.378;20.360;2023-08-24T08:42:37;10.50;;;6.13;;
74541;SDS011;63015;45.378;20.360;2023-08-24T08:44:38;10.95;;;6.60;;
74541;SDS011;63015;45.378;20.360;2023-08-24T08:46:42;7.85;;;6.20;;
74541;SDS011;63015;45.378;20.360;2023-08-24T08:48:44;10.10;;;6.60;;
74541;SDS011;63015;45.378;20.360;2023-08-24T08:50:48;8.85;;;7.65;;
74541;SDS011;63015;45.378;20.360;2023-08-24T08:52:49;10.63;;;6.35;;
74541;SDS011;63015;45.378;20.360;2023-08-24T08:54:50;9.25;;;6.78;;
74541;SDS011;63015;45.378;20.360;2023-08-24T08:56:51;9.13;;;6.43;;
74541;SDS011;63015;45.378;20.360;2023-08-24T08:58:53;10.60;;;7.97;;
74541;SDS011;63015;45.378;20.360;2023-08-24T09:00:56;9.23;;;6.15;;
74541;SDS011;63015;45.378;20.360;2023-08-24T09:03:00;8.93;;;6.03;;
74541;SDS011;63015;45.378;20.360;2023-08-24T09:05:03;8.38;;;6.88;;
74541;SDS011;63015;45.378;20.360;2023-08-24T09:07:04;9.95;;;7.05;;
74541;SDS011;63015;45.378;20.360;2023-08-24T09:09:10;9.18;;;6.03;;
74541;SDS011;63015;45.378;20.360;2023-08-24T09:11:12;8.82;;;7.57;;
74541;SDS011;63015;45.378;20.360;2023-08-24T09:13:12;9.82;;;6.85;;
74541;SDS011;63015;45.378;20.360;2023-08-24T09:15:13;10.80;;;6.15;;
74541;SDS011;63015;45.378;20.360;2023-08-24T09:17:20;8.40;;;6.20;;
74541;SDS011;63015;45.378;20.360;2023-08-24T09:19:28;10.10;;;6.43;;
74541;SDS011;63015;45.378;20.360;2023-08-24T09:21:30;9.35;;;6.25;;
74541;SDS011;63015;45.378;20.360;2023-08-24T09:23:31;9.40;;;6.15;;
74541;SDS011;63015;45.378;20.360;2023-08-24T09:25:31;9.35;;;8.38;;
74541;SDS011;63015;45.378;20.360;2023-08-24T09:27:32;7.95;;;6.32;;
74541;SDS011;63015;45.378;20.360;2023-08-24T09:29:36;9.32;;;6.53;;
74541;SDS011;63015;45.378;20.360;2023-08-24T09:31:37;7.88;;;6.32;;
74541;SDS011;63015;45.378;20.360;2023-08-24T09:33:42;7.90;;;6.18;;
74541;SDS011;63015;45.378;20.360;2023-08-24T09:35:45;8.88;;;6.10;;
74541;SDS011;63015;45.378;20.360;2023-08-24T09:37:53;8.70;;;5.72;;
74541;SDS011;63015;45.378;20.360;2023-08-24T09:40:00;7.32;;;5.40;;
74541;SDS011;63015;45.378;20.360;2023-08-24T09:42:07;9.50;;;7.00;;
74541;SDS011;63015;45.378;20.360;2023-08-24T09:44:08;7.93;;;5.70;;
74541;SDS011;63015;45.378;20.360;2023-08-24T09:46:10;8.35;;;6.05;;
74541;SDS011;63015;45.378;20.360;2023-08-24T09:48:11;10.27;;;6.07;;
74541;SDS011;63015;45.378;20.360;2023-08-24T09:50:12;7.47;;;6.20;;
74541;SDS011;63015;45.378;20.360;2023-08-24T09:52:12;7.63;;;6.20;;
74541;SDS011;63015;45.378;20.360;2023-08-24T09:54:15;9.70;;;5.00;;
74541;SDS011;63015;45.378;20.360;2023-08-24T09:56:17;9.73;;;5.90;;
74541;SDS011;63015;45.378;20.360;2023-08-24T09:58:20;9.98;;;6.88;;
74541;SDS011;63015;45.378;20.360;2023-08-24T10:00:22;7.60;;;5.80;;
74541;SDS011;63015;45.378;20.360;2023-08-24T10:02:24;8.68;;;5.25;;
74541;SDS011;63015;45.378;20.360;2023-08-24T10:04:33;8.68;;;5.20;;
74541;SDS011;63015;45.378;20.360;2023-08-24T10:06:36;7.63;;;5.57;;
74541;SDS011;63015;45.378;20.360;2023-08-24T10:08:40;8.25;;;5.28;;
74541;SDS011;63015;45.378;20.360;2023-08-24T10:10:47;8.25;;;5.28;;
74541;SDS011;63015;45.378;20.360;2023-08-24T10:12:56;8.05;;;5.45;;
74541;SDS011;63015;45.378;20.360;2023-08-24T10:15:01;8.38;;;5.32;;
74541;SDS011;63015;45.378;20.360;2023-08-24T10:17:08;8.98;;;5.68;;
74541;SDS011;63015;45.378;20.360;2023-08-24T10:19:11;6.63;;;4.85;;
74541;SDS011;63015;45.378;20.360;2023-08-24T10:21:13;9.10;;;5.32;;
74541;SDS011;63015;45.378;20.360;2023-08-24T10:23:16;7.45;;;6.25;;
74541;SDS011;63015;45.378;20.360;2023-08-24T10:25:19;7.95;;;5.05;;
74541;SDS011;63015;45.378;20.360;2023-08-24T10:27:24;7.07;;;5.40;;
74541;SDS011;63015;45.378;20.360;2023-08-24T10:29:27;7.65;;;4.43;;
74541;SDS011;63015;45.378;20.360;2023-08-24T10:31:29;6.75;;;4.47;;
74541;SDS011;63015;45.378;20.360;2023-08-24T10:33:31;9.35;;;4.97;;
74541;SDS011;63015;45.378;20.360;2023-08-24T10:35:34;8.38;;;6.10;;
74541;SDS011;63015;45.378;20.360;2023-08-24T10:37:35;7.22;;;4.93;;
74541;SDS011;63015;45.378;20.360;2023-08-24T10:39:43;10.00;;;5.72;;
74541;SDS011;63015;45.378;20.360;2023-08-24T10:41:52;8.00;;;4.75;;
74541;SDS011;63015;45.378;20.360;2023-08-24T10:43:53;7.28;;;4.47;;
74541;SDS011;63015;45.378;20.360;2023-08-24T10:46:13;8.00;;;4.95;;
74541;SDS011;63015;45.378;20.360;2023-08-24T10:48:16;12.05;;;5.95;;
74541;SDS011;63015;45.378;20.360;2023-08-24T10:50:17;9.25;;;5.50;;
74541;SDS011;63015;45.378;20.360;2023-08-24T10:54:29;10.10;;;4.85;;
74541;SDS011;63015;45.378;20.360;2023-08-24T10:56:35;6.10;;;4.25;;
74541;SDS011;63015;45.378;20.360;2023-08-24T10:58:38;8.35;;;4.40;;
74541;SDS011;63015;45.378;20.360;2023-08-24T11:00:39;6.38;;;4.55;;
74541;SDS011;63015;45.378;20.360;2023-08-24T11:02:46;6.85;;;4.35;;
74541;SDS011;63015;45.378;20.360;2023-08-24T11:07:24;6.88;;;4.45;;
74541;SDS011;63015;45.378;20.360;2023-08-24T11:09:25;6.50;;;4.30;;
74541;SDS011;63015;45.378;20.360;2023-08-24T11:11:27;8.32;;;5.47;;
74541;SDS011;63015;45.378;20.360;2023-08-24T11:13:28;8.02;;;5.38;;
74541;SDS011;63015;45.378;20.360;2023-08-24T11:15:29;7.28;;;5.45;;
74541;SDS011;63015;45.378;20.360;2023-08-24T11:17:30;8.57;;;5.10;;
74541;SDS011;63015;45.378;20.360;2023-08-24T11:19:33;8.77;;;4.40;;
74541;SDS011;63015;45.378;20.360;2023-08-24T11:21:36;10.70;;;4.65;;
74541;SDS011;63015;45.378;20.360;2023-08-24T11:23:38;6.32;;;4.47;;
74541;SDS011;63015;45.378;20.360;2023-08-24T11:25:39;6.25;;;3.88;;
74541;SDS011;63015;45.378;20.360;2023-08-24T11:27:40;6.13;;;4.47;;
74541;SDS011;63015;45.378;20.360;2023-08-24T11:29:42;5.57;;;3.80;;
74541;SDS011;63015;45.378;20.360;2023-08-24T11:31:43;9.35;;;3.90;;
74541;SDS011;63015;45.378;20.360;2023-08-24T11:33:43;6.18;;;4.13;;
74541;SDS011;63015;45.378;20.360;2023-08-24T11:35:45;5.50;;;3.78;;
74541;SDS011;63015;45.378;20.360;2023-08-24T11:37:50;6.75;;;4.38;;
74541;SDS011;63015;45.378;20.360;2023-08-24T11:39:57;6.90;;;3.80;;
74541;SDS011;63015;45.378;20.360;2023-08-24T11:42:01;7.47;;;4.43;;
74541;SDS011;63015;45.378;20.360;2023-08-24T11:44:03;7.47;;;5.55;;
74541;SDS011;63015;45.378;20.360;2023-08-24T11:46:04;7.00;;;4.10;;
74541;SDS011;63015;45.378;20.360;2023-08-24T11:48:05;5.50;;;3.90;;
74541;SDS011;63015;45.378;20.360;2023-08-24T11:50:07;10.40;;;4.43;;
74541;SDS011;63015;45.378;20.360;2023-08-24T11:52:08;7.63;;;5.43;;
74541;SDS011;63015;45.378;20.360;2023-08-24T11:54:11;7.30;;;4.45;;
74541;SDS011;63015;45.378;20.360;2023-08-24T11:56:12;6.78;;;4.07;;
74541;SDS011;63015;45.378;20.360;2023-08-24T12:00:15;5.95;;;4.30;;
74541;SDS011;63015;45.378;20.360;2023-08-24T12:02:18;7.63;;;4.82;;
74541;SDS011;63015;45.378;20.360;2023-08-24T12:04:20;7.15;;;4.30;;
74541;SDS011;63015;45.378;20.360;2023-08-24T12:06:20;10.05;;;5.65;;
74541;SDS011;63015;45.378;20.360;2023-08-24T12:08:21;7.32;;;5.47;;